sensor_id;sensor_type;location;lat;lon;timestamp;temperature;humidity
8402;DHT22;4238;48.404;9.498;2022-10-17T00:00:18;12.00;99.90
8402;DHT22;4238;48.404;9.498;2022-10-17T00:02:45;11.90;99.90
8402;DHT22;4238;48.404;9.498;2022-10-17T00:05:12;11.80;99.90
8402;DHT22;4238;48.404;9.498;2022-10-17T00:07:39;11.60;99.90
8402;DHT22;4238;48.404;9.498;2022-10-17T00:10:07;11.50;99.90
8402;DHT22;4238;48.404;9.498;2022-10-17T00:12:34;11.50;99.90
8402;DHT22;4238;48.404;9.498;2022-10-17T00:15:04;11.40;99.90
8402;DHT22;4238;48.404;9.498;2022-10-17T00:17:32;11.30;99.90
8402;DHT22;4238;48.404;9.498;2022-10-17T00:20:00;11.20;99.90
8402;DHT22;4238;48.404;9.498;2022-10-17T00:22:27;11.10;99.90
8402;DHT22;4238;48.404;9.498;2022-10-17T00:24:54;11.00;99.90
8402;DHT22;4238;48.404;9.498;2022-10-17T00:27:20;11.00;99.90
8402;DHT22;4238;48.404;9.498;2022-10-17T00:29:48;11.00;99.90
8402;DHT22;4238;48.404;9.498;2022-10-17T00:32:16;11.10;99.90
8402;DHT22;4238;48.404;9.498;2022-10-17T00:34:43;11.00;99.90
8402;DHT22;4238;48.404;9.498;2022-10-17T00:37:10;10.90;99.90
8402;DHT22;4238;48.404;9.498;2022-10-17T00:39:37;10.90;99.90
8402;DHT22;4238;48.404;9.498;2022-10-17T00:42:04;10.90;99.90
8402;DHT22;4238;48.404;9.498;2022-10-17T00:47:45;10.80;99.90
8402;DHT22;4238;48.404;9.498;2022-10-17T00:50:14;10.70;99.90
8402;DHT22;4238;48.404;9.498;2022-10-17T00:52:42;10.60;99.90
8402;DHT22;4238;48.404;9.498;2022-10-17T00:55:14;10.60;99.90
8402;DHT22;4238;48.404;9.498;2022-10-17T00:57:42;10.60;99.90
8402;DHT22;4238;48.404;9.498;2022-10-17T01:00:10;10.60;99.90
8402;DHT22;4238;48.404;9.498;2022-10-17T01:02:37;10.60;99.90
8402;DHT22;4238;48.404;9.498;2022-10-17T01:05:07;10.70;99.90
8402;DHT22;4238;48.404;9.498;2022-10-17T01:07:35;10.60;99.90
8402;DHT22;4238;48.404;9.498;2022-10-17T01:10:03;10.60;99.90
8402;DHT22;4238;48.404;9.498;2022-10-17T01:12:38;10.60;99.90
8402;DHT22;4238;48.404;9.498;2022-10-17T01:15:12;10.60;99.90
8402;DHT22;4238;48.404;9.498;2022-10-17T01:17:51;10.50;99.90
8402;DHT22;4238;48.404;9.498;2022-10-17T01:20:52;10.60;99.90
8402;DHT22;4238;48.404;9.498;2022-10-17T01:26:25;10.50;99.90
8402;DHT22;4238;48.404;9.498;2022-10-17T01:29:11;10.50;99.90
8402;DHT22;4238;48.404;9.498;2022-10-17T01:31:45;10.50;99.90
8402;DHT22;4238;48.404;9.498;2022-10-17T01:34:16;10.50;99.90
8402;DHT22;4238;48.404;9.498;2022-10-17T01:36:49;10.40;99.90
8402;DHT22;4238;48.404;9.498;2022-10-17T01:39:21;10.40;99.90
8402;DHT22;4238;48.404;9.498;2022-10-17T01:41:54;10.50;99.90
8402;DHT22;4238;48.404;9.498;2022-10-17T01:44:27;10.50;99.90
8402;DHT22;4238;48.404;9.498;2022-10-17T01:47:00;10.40;99.90
8402;DHT22;4238;48.404;9.498;2022-10-17T01:49:30;10.40;99.90
8402;DHT22;4238;48.404;9.498;2022-10-17T01:52:01;10.50;99.90
8402;DHT22;4238;48.404;9.498;2022-10-17T01:54:32;10.70;99.90
8402;DHT22;4238;48.404;9.498;2022-10-17T01:57:06;10.60;99.90
8402;DHT22;4238;48.404;9.498;2022-10-17T01:59:37;10.50;99.90
8402;DHT22;4238;48.404;9.498;2022-10-17T02:02:08;10.40;99.90
8402;DHT22;4238;48.404;9.498;2022-10-17T02:04:36;10.30;99.90
8402;DHT22;4238;48.404;9.498;2022-10-17T02:07:07;10.30;99.90
8402;DHT22;4238;48.404;9.498;2022-10-17T02:09:34;10.30;99.90
8402;DHT22;4238;48.404;9.498;2022-10-17T02:12:37;10.30;99.90
8402;DHT22;4238;48.404;9.498;2022-10-17T02:15:27;10.20;99.90
8402;DHT22;4238;48.404;9.498;2022-10-17T02:18:06;10.20;99.90
8402;DHT22;4238;48.404;9.498;2022-10-17T02:20:39;10.20;99.90
8402;DHT22;4238;48.404;9.498;2022-10-17T02:23:12;10.10;99.90
8402;DHT22;4238;48.404;9.498;2022-10-17T02:25:45;10.10;99.90
8402;DHT22;4238;48.404;9.498;2022-10-17T02:28:19;10.10;99.90
8402;DHT22;4238;48.404;9.498;2022-10-17T02:30:50;10.10;99.90
8402;DHT22;4238;48.404;9.498;2022-10-17T02:33:24;10.20;99.90
8402;DHT22;4238;48.404;9.498;2022-10-17T02:35:55;10.10;99.90
8402;DHT22;4238;48.404;9.498;2022-10-17T02:38:24;10.30;99.90
8402;DHT22;4238;48.404;9.498;2022-10-17T02:40:53;10.30;99.90
8402;DHT22;4238;48.404;9.498;2022-10-17T02:43:21;10.30;99.90
8402;DHT22;4238;48.404;9.498;2022-10-17T02:45:49;10.10;99.90
8402;DHT22;4238;48.404;9.498;2022-10-17T02:48:21;10.00;99.90
8402;DHT22;4238;48.404;9.498;2022-10-17T02:50:56;9.90;99.90
8402;DHT22;4238;48.404;9.498;2022-10-17T02:53:31;9.90;99.90
8402;DHT22;4238;48.404;9.498;2022-10-17T02:56:03;9.80;99.90
8402;DHT22;4238;48.404;9.498;2022-10-17T02:58:32;9.70;99.90
8402;DHT22;4238;48.404;9.498;2022-10-17T03:01:00;9.70;99.90
8402;DHT22;4238;48.404;9.498;2022-10-17T03:03:31;9.70;99.90
8402;DHT22;4238;48.404;9.498;2022-10-17T03:05:58;9.80;99.90
8402;DHT22;4238;48.404;9.498;2022-10-17T03:08:25;9.70;99.90
8402;DHT22;4238;48.404;9.498;2022-10-17T03:10:52;9.70;99.90
8402;DHT22;4238;48.404;9.498;2022-10-17T03:13:19;9.60;99.90
8402;DHT22;4238;48.404;9.498;2022-10-17T03:15:46;9.50;99.90
8402;DHT22;4238;48.404;9.498;2022-10-17T03:18:13;9.50;99.90
8402;DHT22;4238;48.404;9.498;2022-10-17T03:20:41;9.30;99.90
8402;DHT22;4238;48.404;9.498;2022-10-17T03:23:08;9.20;99.90
8402;DHT22;4238;48.404;9.498;2022-10-17T03:25:35;9.10;99.90
8402;DHT22;4238;48.404;9.498;2022-10-17T03:28:02;9.20;99.90
8402;DHT22;4238;48.404;9.498;2022-10-17T03:30:30;9.20;99.90
8402;DHT22;4238;48.404;9.498;2022-10-17T03:32:57;9.10;99.90
8402;DHT22;4238;48.404;9.498;2022-10-17T03:35:24;9.10;99.90
8402;DHT22;4238;48.404;9.498;2022-10-17T03:37:54;9.20;99.90
8402;DHT22;4238;48.404;9.498;2022-10-17T03:40:21;9.30;99.90
8402;DHT22;4238;48.404;9.498;2022-10-17T03:42:48;9.20;99.90
8402;DHT22;4238;48.404;9.498;2022-10-17T03:45:15;9.10;99.90
8402;DHT22;4238;48.404;9.498;2022-10-17T03:47:41;9.00;99.90
8402;DHT22;4238;48.404;9.498;2022-10-17T03:50:08;9.00;99.90
8402;DHT22;4238;48.404;9.498;2022-10-17T03:52:35;9.10;99.90
8402;DHT22;4238;48.404;9.498;2022-10-17T03:55:04;9.00;99.90
8402;DHT22;4238;48.404;9.498;2022-10-17T03:57:33;9.00;99.90
8402;DHT22;4238;48.404;9.498;2022-10-17T04:00:00;9.20;99.90
8402;DHT22;4238;48.404;9.498;2022-10-17T04:02:29;9.10;99.90
8402;DHT22;4238;48.404;9.498;2022-10-17T04:04:56;9.10;99.90
8402;DHT22;4238;48.404;9.498;2022-10-17T04:07:22;9.00;99.90
8402;DHT22;4238;48.404;9.498;2022-10-17T04:09:49;9.00;99.90
8402;DHT22;4238;48.404;9.498;2022-10-17T04:12:18;9.10;99.90
8402;DHT22;4238;48.404;9.498;2022-10-17T04:14:44;9.00;99.90
8402;DHT22;4238;48.404;9.498;2022-10-17T04:17:11;9.00;99.90
8402;DHT22;4238;48.404;9.498;2022-10-17T04:19:38;8.90;99.90
8402;DHT22;4238;48.404;9.498;2022-10-17T04:22:05;8.90;99.90
8402;DHT22;4238;48.404;9.498;2022-10-17T04:24:33;8.90;99.90
8402;DHT22;4238;48.404;9.498;2022-10-17T04:27:00;8.90;99.90
8402;DHT22;4238;48.404;9.498;2022-10-17T04:29:28;8.90;99.90
8402;DHT22;4238;48.404;9.498;2022-10-17T04:31:55;8.90;99.90
8402;DHT22;4238;48.404;9.498;2022-10-17T04:34:22;8.80;99.90
8402;DHT22;4238;48.404;9.498;2022-10-17T04:36:49;8.80;99.90
8402;DHT22;4238;48.404;9.498;2022-10-17T04:39:16;8.90;99.90
8402;DHT22;4238;48.404;9.498;2022-10-17T04:41:43;8.90;99.90
8402;DHT22;4238;48.404;9.498;2022-10-17T04:44:11;8.90;99.90
8402;DHT22;4238;48.404;9.498;2022-10-17T04:46:39;8.90;99.90
8402;DHT22;4238;48.404;9.498;2022-10-17T04:49:06;8.80;99.90
8402;DHT22;4238;48.404;9.498;2022-10-17T04:51:33;8.80;99.90
8402;DHT22;4238;48.404;9.498;2022-10-17T04:54:00;8.70;99.90
8402;DHT22;4238;48.404;9.498;2022-10-17T04:56:27;8.70;99.90
8402;DHT22;4238;48.404;9.498;2022-10-17T04:58:54;8.70;99.90
8402;DHT22;4238;48.404;9.498;2022-10-17T05:01:22;8.80;99.90
8402;DHT22;4238;48.404;9.498;2022-10-17T05:03:51;8.70;99.90
8402;DHT22;4238;48.404;9.498;2022-10-17T05:06:19;8.90;99.90
8402;DHT22;4238;48.404;9.498;2022-10-17T05:08:47;9.00;99.90
8402;DHT22;4238;48.404;9.498;2022-10-17T05:11:16;8.90;99.90
8402;DHT22;4238;48.404;9.498;2022-10-17T05:13:43;9.00;99.90
8402;DHT22;4238;48.404;9.498;2022-10-17T05:16:10;9.00;99.90
8402;DHT22;4238;48.404;9.498;2022-10-17T05:18:37;8.90;99.90
8402;DHT22;4238;48.404;9.498;2022-10-17T05:21:06;8.80;99.90
8402;DHT22;4238;48.404;9.498;2022-10-17T05:23:32;8.80;99.90
8402;DHT22;4238;48.404;9.498;2022-10-17T05:25:59;8.70;99.90
8402;DHT22;4238;48.404;9.498;2022-10-17T05:28:26;8.70;99.90
8402;DHT22;4238;48.404;9.498;2022-10-17T05:30:53;8.80;99.90
8402;DHT22;4238;48.404;9.498;2022-10-17T05:33:21;8.70;99.90
8402;DHT22;4238;48.404;9.498;2022-10-17T05:35:48;8.70;99.90
8402;DHT22;4238;48.404;9.498;2022-10-17T05:38:17;8.70;99.90
8402;DHT22;4238;48.404;9.498;2022-10-17T05:40:44;8.80;99.90
8402;DHT22;4238;48.404;9.498;2022-10-17T05:43:10;8.80;99.90
8402;DHT22;4238;48.404;9.498;2022-10-17T05:45:39;8.80;99.90
8402;DHT22;4238;48.404;9.498;2022-10-17T05:48:06;8.80;99.90
8402;DHT22;4238;48.404;9.498;2022-10-17T05:50:33;8.70;99.90
8402;DHT22;4238;48.404;9.498;2022-10-17T05:53:00;8.70;99.90
8402;DHT22;4238;48.404;9.498;2022-10-17T05:55:29;8.70;99.90
8402;DHT22;4238;48.404;9.498;2022-10-17T05:57:56;8.90;99.90
8402;DHT22;4238;48.404;9.498;2022-10-17T06:00:23;9.00;99.90
8402;DHT22;4238;48.404;9.498;2022-10-17T06:02:50;9.00;99.90
8402;DHT22;4238;48.404;9.498;2022-10-17T06:05:17;8.90;99.90
8402;DHT22;4238;48.404;9.498;2022-10-17T06:07:44;8.90;99.90
8402;DHT22;4238;48.404;9.498;2022-10-17T06:10:11;8.90;99.90
8402;DHT22;4238;48.404;9.498;2022-10-17T06:12:42;8.90;99.90
8402;DHT22;4238;48.404;9.498;2022-10-17T06:15:10;8.90;99.90
8402;DHT22;4238;48.404;9.498;2022-10-17T06:17:37;9.10;99.90
8402;DHT22;4238;48.404;9.498;2022-10-17T06:20:05;9.30;99.90
8402;DHT22;4238;48.404;9.498;2022-10-17T06:22:32;9.20;99.90
8402;DHT22;4238;48.404;9.498;2022-10-17T06:24:59;9.20;99.90
8402;DHT22;4238;48.404;9.498;2022-10-17T06:27:25;9.20;99.90
8402;DHT22;4238;48.404;9.498;2022-10-17T06:29:54;9.20;99.90
8402;DHT22;4238;48.404;9.498;2022-10-17T06:32:21;9.20;99.90
8402;DHT22;4238;48.404;9.498;2022-10-17T06:34:47;9.20;99.90
8402;DHT22;4238;48.404;9.498;2022-10-17T06:37:14;9.30;99.90
8402;DHT22;4238;48.404;9.498;2022-10-17T06:39:41;9.30;99.90
8402;DHT22;4238;48.404;9.498;2022-10-17T06:42:08;9.50;99.90
8402;DHT22;4238;48.404;9.498;2022-10-17T06:44:35;9.60;99.90
8402;DHT22;4238;48.404;9.498;2022-10-17T06:47:03;9.70;99.90
8402;DHT22;4238;48.404;9.498;2022-10-17T06:49:30;9.60;99.90
8402;DHT22;4238;48.404;9.498;2022-10-17T06:51:58;9.70;99.90
8402;DHT22;4238;48.404;9.498;2022-10-17T06:54:25;9.90;99.90
8402;DHT22;4238;48.404;9.498;2022-10-17T06:56:53;10.10;99.90
8402;DHT22;4238;48.404;9.498;2022-10-17T06:59:20;10.20;99.90
8402;DHT22;4238;48.404;9.498;2022-10-17T07:01:47;10.30;99.90
8402;DHT22;4238;48.404;9.498;2022-10-17T07:04:16;10.40;99.90
8402;DHT22;4238;48.404;9.498;2022-10-17T07:06:43;10.30;99.90
8402;DHT22;4238;48.404;9.498;2022-10-17T07:09:10;10.10;99.90
8402;DHT22;4238;48.404;9.498;2022-10-17T07:11:37;10.10;99.90
8402;DHT22;4238;48.404;9.498;2022-10-17T07:14:04;10.20;99.90
8402;DHT22;4238;48.404;9.498;2022-10-17T07:16:31;10.30;99.90
8402;DHT22;4238;48.404;9.498;2022-10-17T07:18:58;10.50;99.90
8402;DHT22;4238;48.404;9.498;2022-10-17T07:21:26;10.50;99.90
8402;DHT22;4238;48.404;9.498;2022-10-17T07:23:54;10.50;99.90
8402;DHT22;4238;48.404;9.498;2022-10-17T07:26:21;10.50;99.90
8402;DHT22;4238;48.404;9.498;2022-10-17T07:28:53;10.70;99.90
8402;DHT22;4238;48.404;9.498;2022-10-17T07:31:21;10.90;99.90
8402;DHT22;4238;48.404;9.498;2022-10-17T07:33:49;11.10;99.90
8402;DHT22;4238;48.404;9.498;2022-10-17T07:36:17;11.10;99.90
8402;DHT22;4238;48.404;9.498;2022-10-17T07:38:45;11.20;99.90
8402;DHT22;4238;48.404;9.498;2022-10-17T07:41:12;11.40;99.90
8402;DHT22;4238;48.404;9.498;2022-10-17T07:43:39;11.50;99.90
8402;DHT22;4238;48.404;9.498;2022-10-17T07:46:08;11.60;99.90
8402;DHT22;4238;48.404;9.498;2022-10-17T07:48:36;11.70;99.90
8402;DHT22;4238;48.404;9.498;2022-10-17T07:51:05;11.80;99.90
8402;DHT22;4238;48.404;9.498;2022-10-17T07:53:34;11.90;99.90
8402;DHT22;4238;48.404;9.498;2022-10-17T07:56:06;12.10;99.90
8402;DHT22;4238;48.404;9.498;2022-10-17T07:58:33;12.20;99.90
8402;DHT22;4238;48.404;9.498;2022-10-17T08:01:01;12.30;99.90
8402;DHT22;4238;48.404;9.498;2022-10-17T08:03:28;12.40;99.90
8402;DHT22;4238;48.404;9.498;2022-10-17T08:05:58;12.40;99.90
8402;DHT22;4238;48.404;9.498;2022-10-17T08:08:26;12.40;99.90
8402;DHT22;4238;48.404;9.498;2022-10-17T08:10:59;12.60;99.90
8402;DHT22;4238;48.404;9.498;2022-10-17T08:13:28;12.80;99.90
8402;DHT22;4238;48.404;9.498;2022-10-17T08:15:58;13.00;99.90
8402;DHT22;4238;48.404;9.498;2022-10-17T08:18:25;13.30;99.90
8402;DHT22;4238;48.404;9.498;2022-10-17T08:20:52;13.60;99.90
8402;DHT22;4238;48.404;9.498;2022-10-17T08:23:19;13.80;99.90
8402;DHT22;4238;48.404;9.498;2022-10-17T08:25:46;14.10;99.90
8402;DHT22;4238;48.404;9.498;2022-10-17T08:28:13;14.30;99.90
8402;DHT22;4238;48.404;9.498;2022-10-17T08:30:41;14.70;99.90
8402;DHT22;4238;48.404;9.498;2022-10-17T08:33:08;15.00;99.90
8402;DHT22;4238;48.404;9.498;2022-10-17T08:35:35;15.30;99.90
8402;DHT22;4238;48.404;9.498;2022-10-17T08:38:02;15.60;96.00
8402;DHT22;4238;48.404;9.498;2022-10-17T08:40:31;16.00;91.50
8402;DHT22;4238;48.404;9.498;2022-10-17T08:43:14;16.30;88.50
8402;DHT22;4238;48.404;9.498;2022-10-17T08:45:47;16.70;75.60
8402;DHT22;4238;48.404;9.498;2022-10-17T08:48:20;16.90;75.00
8402;DHT22;4238;48.404;9.498;2022-10-17T08:50:51;17.20;65.60
8402;DHT22;4238;48.404;9.498;2022-10-17T08:53:22;17.50;51.50
8402;DHT22;4238;48.404;9.498;2022-10-17T08:55:51;17.70;42.80
8402;DHT22;4238;48.404;9.498;2022-10-17T08:58:21;18.00;32.50
8402;DHT22;4238;48.404;9.498;2022-10-17T09:00:56;18.20;28.40
8402;DHT22;4238;48.404;9.498;2022-10-17T09:03:37;18.30;36.10
8402;DHT22;4238;48.404;9.498;2022-10-17T09:06:17;18.30;44.30
8402;DHT22;4238;48.404;9.498;2022-10-17T09:08:54;18.40;45.80
8402;DHT22;4238;48.404;9.498;2022-10-17T09:11:37;18.50;42.10
8402;DHT22;4238;48.404;9.498;2022-10-17T09:14:21;18.50;32.00
8402;DHT22;4238;48.404;9.498;2022-10-17T09:17:12;18.70;5.80
8402;DHT22;4238;48.404;9.498;2022-10-17T09:19:45;19.00;11.70
8402;DHT22;4238;48.404;9.498;2022-10-17T09:22:19;19.10;8.80
8402;DHT22;4238;48.404;9.498;2022-10-17T09:24:49;19.30;1.00
8402;DHT22;4238;48.404;9.498;2022-10-17T09:27:23;19.60;1.00
8402;DHT22;4238;48.404;9.498;2022-10-17T09:29:53;19.90;1.00
8402;DHT22;4238;48.404;9.498;2022-10-17T09:32:24;20.30;1.00
8402;DHT22;4238;48.404;9.498;2022-10-17T09:34:51;20.60;1.00
8402;DHT22;4238;48.404;9.498;2022-10-17T09:37:20;20.90;1.00
8402;DHT22;4238;48.404;9.498;2022-10-17T09:39:48;21.00;1.00
8402;DHT22;4238;48.404;9.498;2022-10-17T09:42:16;21.10;1.00
8402;DHT22;4238;48.404;9.498;2022-10-17T09:44:50;21.30;99.90
8402;DHT22;4238;48.404;9.498;2022-10-17T09:47:26;21.50;1.00
8402;DHT22;4238;48.404;9.498;2022-10-17T09:49:54;21.90;99.90
8402;DHT22;4238;48.404;9.498;2022-10-17T09:52:26;22.20;1.00
8402;DHT22;4238;48.404;9.498;2022-10-17T09:54:58;22.20;99.90
8402;DHT22;4238;48.404;9.498;2022-10-17T09:57:25;22.10;42.10
8402;DHT22;4238;48.404;9.498;2022-10-17T09:59:57;22.10;1.00
8402;DHT22;4238;48.404;9.498;2022-10-17T10:02:28;22.40;99.90
8402;DHT22;4238;48.404;9.498;2022-10-17T10:04:58;22.40;99.90
8402;DHT22;4238;48.404;9.498;2022-10-17T10:07:29;22.70;99.90
8402;DHT22;4238;48.404;9.498;2022-10-17T10:09:57;22.80;99.90
8402;DHT22;4238;48.404;9.498;2022-10-17T10:12:26;22.60;1.00
8402;DHT22;4238;48.404;9.498;2022-10-17T10:14:54;22.30;1.00
8402;DHT22;4238;48.404;9.498;2022-10-17T10:17:33;22.10;1.00
8402;DHT22;4238;48.404;9.498;2022-10-17T10:20:00;21.80;1.00
8402;DHT22;4238;48.404;9.498;2022-10-17T10:22:27;21.70;1.00
8402;DHT22;4238;48.404;9.498;2022-10-17T10:25:10;21.60;1.00
8402;DHT22;4238;48.404;9.498;2022-10-17T10:27:39;21.80;27.90
8402;DHT22;4238;48.404;9.498;2022-10-17T10:30:16;22.10;1.00
8402;DHT22;4238;48.404;9.498;2022-10-17T10:32:46;22.20;1.00
8402;DHT22;4238;48.404;9.498;2022-10-17T10:35:19;22.50;1.00
8402;DHT22;4238;48.404;9.498;2022-10-17T10:37:50;22.90;1.00
8402;DHT22;4238;48.404;9.498;2022-10-17T10:40:19;23.10;99.90
8402;DHT22;4238;48.404;9.498;2022-10-17T10:42:49;23.40;1.00
8402;DHT22;4238;48.404;9.498;2022-10-17T10:45:17;23.70;99.90
8402;DHT22;4238;48.404;9.498;2022-10-17T10:47:51;24.10;99.90
8402;DHT22;4238;48.404;9.498;2022-10-17T10:50:26;24.50;99.90
8402;DHT22;4238;48.404;9.498;2022-10-17T10:53:09;24.80;99.90
8402;DHT22;4238;48.404;9.498;2022-10-17T10:55:42;24.90;99.90
8402;DHT22;4238;48.404;9.498;2022-10-17T10:58:25;25.20;77.80
8402;DHT22;4238;48.404;9.498;2022-10-17T11:00:53;25.50;1.00
8402;DHT22;4238;48.404;9.498;2022-10-17T11:03:26;25.60;1.00
8402;DHT22;4238;48.404;9.498;2022-10-17T11:05:57;25.70;1.00
8402;DHT22;4238;48.404;9.498;2022-10-17T11:08:30;25.90;1.00
8402;DHT22;4238;48.404;9.498;2022-10-17T11:11:07;25.90;1.00
8402;DHT22;4238;48.404;9.498;2022-10-17T11:13:43;26.00;1.00
8402;DHT22;4238;48.404;9.498;2022-10-17T11:16:20;25.50;1.00
8402;DHT22;4238;48.404;9.498;2022-10-17T11:18:54;25.60;1.00
8402;DHT22;4238;48.404;9.498;2022-10-17T11:21:27;25.60;1.00
8402;DHT22;4238;48.404;9.498;2022-10-17T11:24:00;25.90;1.00
8402;DHT22;4238;48.404;9.498;2022-10-17T11:26:32;26.10;1.00
8402;DHT22;4238;48.404;9.498;2022-10-17T11:29:02;26.20;1.00
8402;DHT22;4238;48.404;9.498;2022-10-17T11:31:34;26.10;1.00
8402;DHT22;4238;48.404;9.498;2022-10-17T11:34:06;26.10;1.00
8402;DHT22;4238;48.404;9.498;2022-10-17T11:36:38;26.00;1.00
8402;DHT22;4238;48.404;9.498;2022-10-17T11:39:10;25.90;1.00
8402;DHT22;4238;48.404;9.498;2022-10-17T11:41:42;25.70;1.00
8402;DHT22;4238;48.404;9.498;2022-10-17T11:44:17;25.60;1.00
8402;DHT22;4238;48.404;9.498;2022-10-17T11:46:47;25.30;1.00
8402;DHT22;4238;48.404;9.498;2022-10-17T11:49:19;25.40;1.00
8402;DHT22;4238;48.404;9.498;2022-10-17T11:51:53;25.60;1.00
8402;DHT22;4238;48.404;9.498;2022-10-17T11:54:24;25.60;1.00
8402;DHT22;4238;48.404;9.498;2022-10-17T11:57:16;25.70;1.00
8402;DHT22;4238;48.404;9.498;2022-10-17T11:59:56;25.80;1.00
8402;DHT22;4238;48.404;9.498;2022-10-17T12:02:32;25.60;1.00
8402;DHT22;4238;48.404;9.498;2022-10-17T12:05:10;25.70;1.00
8402;DHT22;4238;48.404;9.498;2022-10-17T12:07:45;26.00;1.00
8402;DHT22;4238;48.404;9.498;2022-10-17T12:10:26;25.70;1.00
8402;DHT22;4238;48.404;9.498;2022-10-17T12:12:54;26.10;1.00
8402;DHT22;4238;48.404;9.498;2022-10-17T12:15:30;26.30;1.00
8402;DHT22;4238;48.404;9.498;2022-10-17T12:17:59;26.40;1.00
8402;DHT22;4238;48.404;9.498;2022-10-17T12:20:38;26.60;1.00
8402;DHT22;4238;48.404;9.498;2022-10-17T12:23:25;26.60;1.00
8402;DHT22;4238;48.404;9.498;2022-10-17T12:25:53;26.70;1.00
8402;DHT22;4238;48.404;9.498;2022-10-17T12:28:28;26.60;1.00
8402;DHT22;4238;48.404;9.498;2022-10-17T12:30:58;26.60;1.00
8402;DHT22;4238;48.404;9.498;2022-10-17T12:33:32;26.60;1.00
8402;DHT22;4238;48.404;9.498;2022-10-17T12:39:44;26.10;1.00
8402;DHT22;4238;48.404;9.498;2022-10-17T12:45:45;26.10;1.00
8402;DHT22;4238;48.404;9.498;2022-10-17T12:48:13;26.20;1.00
8402;DHT22;4238;48.404;9.498;2022-10-17T12:51:03;26.30;1.00
8402;DHT22;4238;48.404;9.498;2022-10-17T12:53:37;26.20;1.00
8402;DHT22;4238;48.404;9.498;2022-10-17T12:56:07;26.10;1.00
8402;DHT22;4238;48.404;9.498;2022-10-17T12:58:34;26.10;1.00
8402;DHT22;4238;48.404;9.498;2022-10-17T13:01:03;26.10;1.00
8402;DHT22;4238;48.404;9.498;2022-10-17T13:03:34;26.10;1.00
8402;DHT22;4238;48.404;9.498;2022-10-17T13:06:06;26.00;1.00
8402;DHT22;4238;48.404;9.498;2022-10-17T13:08:38;26.10;1.00
8402;DHT22;4238;48.404;9.498;2022-10-17T13:11:10;25.90;1.00
8402;DHT22;4238;48.404;9.498;2022-10-17T13:13:41;25.90;1.00
8402;DHT22;4238;48.404;9.498;2022-10-17T13:16:26;25.90;1.00
8402;DHT22;4238;48.404;9.498;2022-10-17T13:18:53;25.90;1.00
8402;DHT22;4238;48.404;9.498;2022-10-17T13:21:20;25.70;1.00
8402;DHT22;4238;48.404;9.498;2022-10-17T13:23:47;25.50;1.00
8402;DHT22;4238;48.404;9.498;2022-10-17T13:26:19;25.40;1.00
8402;DHT22;4238;48.404;9.498;2022-10-17T13:29:01;25.30;1.00
8402;DHT22;4238;48.404;9.498;2022-10-17T13:31:30;25.50;1.00
8402;DHT22;4238;48.404;9.498;2022-10-17T13:34:00;25.30;1.00
8402;DHT22;4238;48.404;9.498;2022-10-17T13:36:29;25.40;1.00
8402;DHT22;4238;48.404;9.498;2022-10-17T13:38:57;25.40;1.00
8402;DHT22;4238;48.404;9.498;2022-10-17T13:41:28;25.30;1.00
8402;DHT22;4238;48.404;9.498;2022-10-17T13:43:56;25.10;1.00
8402;DHT22;4238;48.404;9.498;2022-10-17T13:46:27;25.00;1.00
8402;DHT22;4238;48.404;9.498;2022-10-17T13:48:55;25.00;1.00
8402;DHT22;4238;48.404;9.498;2022-10-17T13:51:22;24.80;1.00
8402;DHT22;4238;48.404;9.498;2022-10-17T13:53:49;24.80;1.00
8402;DHT22;4238;48.404;9.498;2022-10-17T13:56:19;24.70;1.00
8402;DHT22;4238;48.404;9.498;2022-10-17T13:58:49;24.70;1.00
8402;DHT22;4238;48.404;9.498;2022-10-17T14:01:17;24.50;1.00
8402;DHT22;4238;48.404;9.498;2022-10-17T14:03:46;24.40;1.00
8402;DHT22;4238;48.404;9.498;2022-10-17T14:06:16;24.30;1.00
8402;DHT22;4238;48.404;9.498;2022-10-17T14:08:49;24.10;1.00
8402;DHT22;4238;48.404;9.498;2022-10-17T14:11:25;23.90;1.00
8402;DHT22;4238;48.404;9.498;2022-10-17T14:13:55;23.80;1.00
8402;DHT22;4238;48.404;9.498;2022-10-17T14:16:23;23.70;16.40
8402;DHT22;4238;48.404;9.498;2022-10-17T14:18:51;23.70;41.50
8402;DHT22;4238;48.404;9.498;2022-10-17T14:21:21;23.60;99.90
8402;DHT22;4238;48.404;9.498;2022-10-17T14:23:49;23.60;99.90
8402;DHT22;4238;48.404;9.498;2022-10-17T14:26:18;23.60;93.30
8402;DHT22;4238;48.404;9.498;2022-10-17T14:28:47;23.70;91.20
8402;DHT22;4238;48.404;9.498;2022-10-17T14:31:25;23.60;74.40
8402;DHT22;4238;48.404;9.498;2022-10-17T14:33:54;23.50;1.00
8402;DHT22;4238;48.404;9.498;2022-10-17T14:36:30;23.40;1.00
8402;DHT22;4238;48.404;9.498;2022-10-17T14:38:58;23.30;1.00
8402;DHT22;4238;48.404;9.498;2022-10-17T14:41:27;23.20;1.00
8402;DHT22;4238;48.404;9.498;2022-10-17T14:43:58;23.20;1.00
8402;DHT22;4238;48.404;9.498;2022-10-17T14:46:28;23.10;1.00
8402;DHT22;4238;48.404;9.498;2022-10-17T14:48:58;23.00;1.00
8402;DHT22;4238;48.404;9.498;2022-10-17T14:51:28;22.90;1.00
8402;DHT22;4238;48.404;9.498;2022-10-17T14:54:04;22.80;1.00
8402;DHT22;4238;48.404;9.498;2022-10-17T14:56:40;22.80;1.00
8402;DHT22;4238;48.404;9.498;2022-10-17T14:59:07;22.70;1.00
8402;DHT22;4238;48.404;9.498;2022-10-17T15:01:37;22.50;1.00
8402;DHT22;4238;48.404;9.498;2022-10-17T15:04:03;22.40;1.00
8402;DHT22;4238;48.404;9.498;2022-10-17T15:06:32;22.20;1.00
8402;DHT22;4238;48.404;9.498;2022-10-17T15:09:00;22.20;1.00
8402;DHT22;4238;48.404;9.498;2022-10-17T15:11:27;22.10;1.00
8402;DHT22;4238;48.404;9.498;2022-10-17T15:13:54;22.00;1.00
8402;DHT22;4238;48.404;9.498;2022-10-17T15:16:23;21.90;1.00
8402;DHT22;4238;48.404;9.498;2022-10-17T15:18:51;21.80;1.00
8402;DHT22;4238;48.404;9.498;2022-10-17T15:21:21;21.70;1.00
8402;DHT22;4238;48.404;9.498;2022-10-17T15:23:49;21.60;1.00
8402;DHT22;4238;48.404;9.498;2022-10-17T15:26:19;21.60;4.70
8402;DHT22;4238;48.404;9.498;2022-10-17T15:28:47;21.40;21.50
8402;DHT22;4238;48.404;9.498;2022-10-17T15:31:16;21.40;35.20
8402;DHT22;4238;48.404;9.498;2022-10-17T15:33:44;21.30;93.90
8402;DHT22;4238;48.404;9.498;2022-10-17T15:36:23;21.30;99.90
8402;DHT22;4238;48.404;9.498;2022-10-17T15:38:54;21.10;99.90
8402;DHT22;4238;48.404;9.498;2022-10-17T15:41:22;21.00;99.90
8402;DHT22;4238;48.404;9.498;2022-10-17T15:43:50;20.90;99.90
8402;DHT22;4238;48.404;9.498;2022-10-17T15:46:18;20.90;99.90
8402;DHT22;4238;48.404;9.498;2022-10-17T15:48:47;20.70;99.90
8402;DHT22;4238;48.404;9.498;2022-10-17T15:51:14;20.60;99.90
8402;DHT22;4238;48.404;9.498;2022-10-17T15:53:43;20.40;1.00
8402;DHT22;4238;48.404;9.498;2022-10-17T15:56:18;20.20;99.90
8402;DHT22;4238;48.404;9.498;2022-10-17T15:58:45;20.00;1.00
8402;DHT22;4238;48.404;9.498;2022-10-17T16:01:19;19.80;99.90
8402;DHT22;4238;48.404;9.498;2022-10-17T16:03:47;19.60;99.90
8402;DHT22;4238;48.404;9.498;2022-10-17T16:06:15;19.30;1.00
8402;DHT22;4238;48.404;9.498;2022-10-17T16:08:44;19.10;1.00
8402;DHT22;4238;48.404;9.498;2022-10-17T16:11:16;19.00;9.80
8402;DHT22;4238;48.404;9.498;2022-10-17T16:13:50;18.90;1.00
8402;DHT22;4238;48.404;9.498;2022-10-17T16:16:17;18.60;1.00
8402;DHT22;4238;48.404;9.498;2022-10-17T16:18:45;18.40;99.90
8402;DHT22;4238;48.404;9.498;2022-10-17T16:21:12;18.20;99.90
8402;DHT22;4238;48.404;9.498;2022-10-17T16:23:40;18.00;99.90
8402;DHT22;4238;48.404;9.498;2022-10-17T16:26:09;17.90;1.00
8402;DHT22;4238;48.404;9.498;2022-10-17T16:28:39;17.70;1.00
8402;DHT22;4238;48.404;9.498;2022-10-17T16:31:16;17.60;1.00
8402;DHT22;4238;48.404;9.498;2022-10-17T16:33:44;17.30;1.00
8402;DHT22;4238;48.404;9.498;2022-10-17T16:36:11;17.20;1.00
8402;DHT22;4238;48.404;9.498;2022-10-17T16:38:38;17.00;1.00
8402;DHT22;4238;48.404;9.498;2022-10-17T16:41:16;16.80;1.00
8402;DHT22;4238;48.404;9.498;2022-10-17T16:43:44;16.70;1.00